الصفحة الرئيسية
METAR-TAF:

METAR-TAF

مطار :

Medan, سومطرة الشمالية, إندونيسيا

دائرة عرض: 03-34N, خط طول: 098-41E, ارتفاع: 25 متر

مراقبة الطقس الحالي

تاريخ ووقت الإصدار 18 دقيقة قبل الساعة 01:30UTC
ريح 4 عقدة من الجنوب الغربي
درجة الحرارة 26°درجة مئوية
الرطوبة 94%
ضغط 1011 hPa
الرؤية 10 كم أو أكثر
غيوم متفرقة على ارتفاع 1700 قدم
غيوم مفككة على ارتفاع 4000 قدم

METAR: WIMM 010130Z 23004KT 9999 SCT017 BKN040 26/25 Q1011 NOSIG

زمن: 08:48 (01:48 UTC)

توقعات

تاريخ ووقت الإصدار 2ساعات و 48 دقيقة قبل الساعة 23:00UTC
التوقعات صالحة من01 الساعة 00 UTC إلى 02 الساعة 00 UTC
ريح 10 عقدة من الشمال
الرؤية 10 كم أو أكثر
غيوم متفرقة على ارتفاع 1800 قدم
أصبح
من 01 الساعة 10 UTC إلى 01 الساعة 12 UTC
ريح 3 عقدةمن اتجاهات متغيرة
الرؤية: 6000 متر

TAF: WIMM 302300Z 0100/0200 01010KT 9999 SCT018 BECMG 0110/0112 VRB03KT 6000

أرصاد الطقس والتوقعات من أكثر من 4000 مطار (تقارير الطقس للمطار METAR والتنبؤ بالطقس بالمطارTAF).

المحطات المتاحة هي النقط الصفراء والحمراء على الخريطة.

حرك المؤشر فوق النقطة لمعرفة اسم المحطة.

ثم انقر لمعرفة أرصاد وتوقعات الطقس.

لتغيير الخارطة: اضغط على الأزرار الخضراء مع رمز الصليب الأسود للتكبير. على الزر الأخضر مع شرطة للتصغير، أو على الأسهم الخضراء للخرائط المجاورة.


METAR-TAF: